Time;durP1;ratioP1;P1;durP2;ratioP2;P2;SDS_P1;SDS_P2;PMS_P1;PMS_P2;Temp;Humidity;BMP_temperature;BMP_pressure;BME280_temperature;BME280_humidity;BME280_pressure;Samples;Min_cycle;Max_cycle;Signal;HPM_P1;HPM_P2
2021/12/06 00:01:29;;;;;;;6.13;3.33;;;19.40;50.60;;;;;;4981417;28;20263;-26
2021/12/06 00:03:58;;;;;;;5.40;3.10;;;19.30;51.10;;;;;;4963944;28;20282;-23
2021/12/06 00:06:26;;;;;;;5.53;3.37;;;19.20;51.00;;;;;;4980731;28;20211;-23
2021/12/06 00:08:53;;;;;;;5.77;3.20;;;19.10;51.10;;;;;;4964200;28;20263;-24
2021/12/06 00:11:19;;;;;;;4.43;3.07;;;19.00;51.30;;;;;;4964011;28;20255;-21
2021/12/06 00:13:47;;;;;;;3.87;3.00;;;19.00;51.50;;;;;;4963631;28;20202;-25
2021/12/06 00:16:18;;;;;;;3.77;2.83;;;18.90;51.60;;;;;;4980862;28;20198;-24
2021/12/06 00:18:45;;;;;;;4.60;2.73;;;18.90;51.80;;;;;;4963588;28;20234;-24
2021/12/06 00:21:11;;;;;;;4.60;3.03;;;18.90;51.90;;;;;;4963936;28;20196;-22
2021/12/06 00:23:37;;;;;;;3.70;3.07;;;18.80;52.00;;;;;;4980241;28;20286;-26
2021/12/06 00:26:04;;;;;;;4.17;3.03;;;18.80;52.20;;;;;;4980015;28;20175;-22
2021/12/06 00:28:30;;;;;;;5.60;3.27;;;18.70;52.30;;;;;;4980852;28;20576;-24
2021/12/06 00:30:56;;;;;;;4.10;2.90;;;18.70;52.40;;;;;;4963782;28;20183;-23
2021/12/06 00:33:24;;;;;;;4.30;3.00;;;18.60;52.60;;;;;;4980101;28;20206;-23
2021/12/06 00:35:50;;;;;;;4.07;2.90;;;18.60;52.60;;;;;;4963642;28;20201;-23
2021/12/06 00:38:16;;;;;;;4.43;2.90;;;18.60;52.80;;;;;;4963257;28;20194;-22
2021/12/06 00:40:46;;;;;;;5.00;3.17;;;18.50;52.90;;;;;;4963653;28;20248;-24
2021/12/06 00:43:15;;;;;;;5.00;3.20;;;18.50;53.00;;;;;;4963571;28;20219;-21
2021/12/06 00:45:41;;;;;;;4.50;2.83;;;18.50;53.50;;;;;;4963810;28;20198;-25
2021/12/06 00:48:07;;;;;;;3.63;2.93;;;18.40;53.20;;;;;;4980435;28;20298;-23
2021/12/06 00:50:36;;;;;;;3.80;2.60;;;18.40;53.40;;;;;;4981035;28;20193;-22
2021/12/06 00:53:03;;;;;;;2.97;2.67;;;18.40;53.40;;;;;;4962861;28;20179;-26
2021/12/06 00:55:29;;;;;;;3.97;2.73;;;18.40;53.40;;;;;;4963161;28;20206;-20
2021/12/06 00:57:55;;;;;;;3.60;2.53;;;18.50;53.40;;;;;;4979798;28;20243;-23
2021/12/06 01:00:26;;;;;;;4.37;2.70;;;18.50;53.20;;;;;;4962808;28;20199;-25
2021/12/06 01:02:53;;;;;;;3.97;2.70;;;18.60;53.10;;;;;;4979860;28;20626;-24
2021/12/06 01:05:22;;;;;;;3.47;2.70;;;18.60;53.00;;;;;;4963286;28;20202;-22
2021/12/06 01:07:50;;;;;;;3.73;2.77;;;18.60;52.80;;;;;;4963022;28;20224;-24
2021/12/06 01:10:16;;;;;;;4.10;2.60;;;18.70;52.70;;;;;;4980199;28;20250;-23
2021/12/06 01:12:43;;;;;;;4.03;2.90;;;18.80;52.40;;;;;;4979883;28;20194;-24
2021/12/06 01:15:09;;;;;;;2.63;2.40;;;18.90;52.20;;;;;;4963305;28;20207;-22
2021/12/06 01:17:35;;;;;;;4.17;2.67;;;18.80;52.10;;;;;;4962468;28;20196;-24
2021/12/06 01:20:07;;;;;;;3.67;2.43;;;18.90;52.00;;;;;;4979407;28;20231;-24
2021/12/06 01:22:47;;;;;;;3.30;2.50;;;19.00;51.90;;;;;;4963210;28;20203;-23
2021/12/06 01:25:27;;;;;;;3.40;2.50;;;19.00;51.80;;;;;;4962492;28;20283;-24
2021/12/06 01:30:54;;;;;;;3.23;2.47;;;19.00;51.70;;;;;;4979367;28;20205;-25
2021/12/06 01:41:35;;;;;;;3.90;2.70;;;18.90;51.60;;;;;;4979298;28;20625;-22
2021/12/06 01:44:05;;;;;;;3.57;2.40;;;18.90;51.70;;;;;;4978893;28;20250;-22
2021/12/06 01:46:33;;;;;;;3.50;2.10;;;18.90;51.70;;;;;;4979293;28;20211;-24
2021/12/06 01:48:59;;;;;;;3.10;2.73;;;18.90;51.70;;;;;;4962533;28;20211;-25
2021/12/06 01:51:25;;;;;;;3.23;2.43;;;18.90;51.60;;;;;;4979248;28;20197;-24
2021/12/06 01:53:51;;;;;;;2.50;2.30;;;18.90;51.60;;;;;;4962269;28;20171;-24
2021/12/06 01:56:18;;;;;;;4.33;2.87;;;18.90;51.60;;;;;;4962460;28;20190;-24
2021/12/06 01:58:43;;;;;;;2.87;2.37;;;18.80;51.60;;;;;;4979971;28;20212;-23
2021/12/06 02:01:10;;;;;;;3.33;2.40;;;18.80;51.70;;;;;;4962362;28;20203;-28
2021/12/06 02:03:36;;;;;;;3.00;2.20;;;18.80;51.80;;;;;;4961890;28;20210;-24
2021/12/06 02:06:01;;;;;;;4.47;2.40;;;18.80;51.90;;;;;;4978522;28;20200;-23
2021/12/06 02:08:27;;;;;;;2.70;2.13;;;18.70;51.90;;;;;;4978581;28;20307;-22
2021/12/06 02:10:59;;;;;;;2.73;2.20;;;18.70;51.90;;;;;;4962099;28;20194;-23
2021/12/06 02:13:28;;;;;;;2.73;2.10;;;18.70;51.90;;;;;;4978539;28;20194;-29
2021/12/06 02:15:55;;;;;;;3.40;2.30;;;18.70;52.00;;;;;;4961723;28;20204;-22
2021/12/06 02:18:40;;;;;;;3.00;2.40;;;18.60;52.10;;;;;;4962018;28;20246;-24
2021/12/06 02:21:20;;;;;;;3.80;2.43;;;18.60;52.10;;;;;;4978815;28;20196;-25
2021/12/06 02:23:47;;;;;;;3.53;2.27;;;18.60;52.20;;;;;;4962239;28;20193;-25
2021/12/06 02:26:14;;;;;;;3.07;2.30;;;18.50;52.20;;;;;;4978199;28;20591;-22
2021/12/06 02:28:41;;;;;;;2.57;2.03;;;18.50;52.20;;;;;;4978572;28;20209;-21
2021/12/06 02:31:07;;;;;;;2.03;1.83;;;18.50;52.30;;;;;;4978814;28;20198;-25
2021/12/06 02:33:33;;;;;;;3.20;2.40;;;18.50;52.30;;;;;;4961595;28;20210;-22
2021/12/06 02:35:59;;;;;;;2.87;2.00;;;18.50;52.30;;;;;;4979014;28;20193;-24
2021/12/06 02:38:25;;;;;;;2.20;1.87;;;18.50;52.40;;;;;;4962232;28;20193;-22
2021/12/06 02:40:51;;;;;;;2.77;2.10;;;18.50;52.30;;;;;;4961657;28;20205;-24
2021/12/06 02:43:16;;;;;;;2.80;2.13;;;18.50;52.30;;;;;;4961257;28;20290;-23
2021/12/06 02:45:44;;;;;;;2.20;1.90;;;18.50;52.20;;;;;;4961905;28;20281;-24
2021/12/06 02:48:12;;;;;;;4.13;2.03;;;18.50;52.10;;;;;;4963948;28;20308;-25
2021/12/06 02:50:51;;;;;;;3.43;2.00;;;18.50;52.10;;;;;;4981984;28;20200;-24
2021/12/06 02:53:20;;;;;;;3.03;2.20;;;18.50;52.10;;;;;;4965260;28;20284;-21
2021/12/06 02:55:52;;;;;;;2.23;1.90;;;18.50;52.10;;;;;;4963348;28;20195;-22
2021/12/06 03:01:06;;;;;;;2.80;2.10;;;18.50;52.10;;;;;;4983021;28;20191;-24
2021/12/06 03:03:33;;;;;;;2.93;1.90;;;18.50;52.40;;;;;;4964935;28;20214;-22
2021/12/06 03:05:59;;;;;;;2.50;2.30;;;18.40;52.00;;;;;;4982347;28;20209;-24
2021/12/06 03:08:48;;;;;;;2.30;1.83;;;18.40;52.10;;;;;;4965390;28;20223;-23
2021/12/06 03:11:28;;;;;;;3.30;2.10;;;18.40;52.20;;;;;;4949438;28;20206;-25
2021/12/06 03:13:54;;;;;;;2.50;1.83;;;18.40;52.30;;;;;;4964621;28;20295;-20
2021/12/06 03:16:20;;;;;;;2.67;2.00;;;18.30;52.40;;;;;;4982324;28;20359;-22
2021/12/06 03:18:50;;;;;;;2.30;2.00;;;18.30;52.40;;;;;;4964633;28;20190;-25
2021/12/06 03:21:18;;;;;;;3.20;2.20;;;18.20;52.50;;;;;;4981616;28;20206;-22
2021/12/06 03:23:45;;;;;;;2.00;1.80;;;18.20;52.50;;;;;;4965471;28;20475;-23
2021/12/06 03:26:11;;;;;;;2.73;1.73;;;18.10;52.70;;;;;;4964593;28;20185;-22
2021/12/06 03:28:41;;;;;;;2.60;1.70;;;18.10;52.80;;;;;;4981741;28;20182;-23
2021/12/06 03:31:07;;;;;;;2.60;1.97;;;18.00;52.90;;;;;;4981628;28;20215;-27
2021/12/06 03:33:35;;;;;;;2.33;1.90;;;18.00;53.10;;;;;;4964664;28;20198;-26
2021/12/06 03:36:03;;;;;;;2.37;2.00;;;17.90;53.20;;;;;;4964766;28;20302;-23
2021/12/06 03:38:29;;;;;;;2.33;2.00;;;17.80;53.30;;;;;;4980702;28;20203;-23
2021/12/06 03:40:55;;;;;;;3.33;2.10;;;17.70;53.50;;;;;;4981143;28;20284;-26
2021/12/06 03:43:20;;;;;;;2.27;1.77;;;17.70;53.80;;;;;;4964678;28;20207;-24
2021/12/06 03:45:47;;;;;;;2.60;1.83;;;17.60;53.90;;;;;;4964570;28;20267;-26
2021/12/06 03:48:12;;;;;;;2.00;1.80;;;17.50;54.10;;;;;;4964869;28;20226;-23
2021/12/06 03:50:38;;;;;;;2.73;2.00;;;17.40;54.30;;;;;;4982149;28;20196;-24
2021/12/06 03:53:04;;;;;;;2.17;1.87;;;17.40;54.60;;;;;;4981323;28;20524;-26
2021/12/06 03:55:30;;;;;;;3.00;2.27;;;17.30;54.70;;;;;;4964491;28;20192;-24
2021/12/06 03:57:56;;;;;;;2.90;1.80;;;17.30;54.80;;;;;;4980646;28;20197;-24
2021/12/06 04:00:22;;;;;;;1.90;1.77;;;17.20;54.90;;;;;;4963169;28;20258;-23
2021/12/06 04:02:48;;;;;;;2.07;1.87;;;17.20;55.10;;;;;;4980615;28;20196;-22
2021/12/06 04:05:19;;;;;;;1.77;1.60;;;17.10;55.20;;;;;;4981918;28;20208;-23
2021/12/06 04:07:45;;;;;;;1.90;1.50;;;17.10;55.40;;;;;;4964735;28;20600;-24
2021/12/06 04:10:11;;;;;;;2.23;1.93;;;19.10;52.50;;;;;;4964244;28;20203;-21
2021/12/06 04:12:38;;;;;;;2.03;1.80;;;21.70;47.50;;;;;;4964198;28;20202;-23
2021/12/06 04:15:08;;;;;;;2.00;1.67;;;22.00;45.70;;;;;;4963886;28;20220;-22
2021/12/06 04:17:36;;;;;;;2.27;2.00;;;22.20;45.30;;;;;;4963777;28;20213;-23
2021/12/06 04:20:08;;;;;;;2.00;1.70;;;22.40;44.90;;;;;;4963910;28;20207;-21
2021/12/06 04:22:35;;;;;;;2.50;1.50;;;22.60;44.70;;;;;;4963499;28;20456;-23
2021/12/06 04:25:03;;;;;;;2.00;1.50;;;23.10;44.10;;;;;;4980257;28;20191;-25
2021/12/06 04:27:29;;;;;;;1.87;1.63;;;23.50;43.60;;;;;;4963216;28;20237;-23
2021/12/06 04:29:55;;;;;;;1.90;1.70;;;24.00;43.00;;;;;;4980408;28;20205;-25
2021/12/06 04:32:22;;;;;;;2.10;1.60;;;24.30;42.60;;;;;;4963978;28;20271;-20
2021/12/06 04:34:49;;;;;;;1.90;1.70;;;24.50;42.20;;;;;;4980680;28;20194;-26
2021/12/06 04:37:15;;;;;;;1.97;1.60;;;24.30;42.20;;;;;;4981008;28;20238;-24
2021/12/06 04:39:41;;;;;;;2.10;1.70;;;24.20;42.30;;;;;;4981066;28;20202;-24
2021/12/06 04:42:08;;;;;;;2.33;1.70;;;24.40;42.30;;;;;;4980444;28;20526;-23
2021/12/06 04:44:34;;;;;;;1.93;1.60;;;24.90;41.80;;;;;;4980695;28;20454;-24
2021/12/06 04:47:01;;;;;;;1.40;1.30;;;25.10;41.60;;;;;;4980399;28;20226;-26
2021/12/06 04:49:29;;;;;;;1.60;1.50;;;25.10;41.50;;;;;;4962496;28;20195;-21
2021/12/06 04:51:58;;;;;;;2.33;1.70;;;25.00;41.50;;;;;;4980056;28;20218;-22
2021/12/06 04:54:30;;;;;;;2.40;1.50;;;25.00;41.50;;;;;;4963071;28;20182;-23
2021/12/06 04:57:02;;;;;;;2.17;1.70;;;25.20;41.40;;;;;;4963264;28;20202;-24
2021/12/06 04:59:28;;;;;;;2.67;1.70;;;25.30;41.30;;;;;;4963214;28;20206;-23
2021/12/06 05:01:56;;;;;;;1.80;1.70;;;25.20;41.20;;;;;;4980142;28;20203;-23
2021/12/06 05:04:29;;;;;;;1.70;1.60;;;25.10;41.40;;;;;;4980177;28;20515;-26
2021/12/06 05:07:03;;;;;;;2.30;1.70;;;24.70;41.50;;;;;;4979181;28;20291;-24
2021/12/06 05:09:33;;;;;;;1.60;1.50;;;24.30;41.90;;;;;;4962110;28;20230;-22
2021/12/06 05:12:01;;;;;;;2.03;1.60;;;24.00;42.30;;;;;;4962382;28;20564;-22
2021/12/06 05:14:27;;;;;;;1.60;1.40;;;23.70;42.60;;;;;;4962659;28;20259;-23
2021/12/06 05:16:54;;;;;;;1.83;1.67;;;23.20;42.90;;;;;;4979646;28;20201;-23
2021/12/06 05:19:20;;;;;;;1.60;1.50;;;23.00;43.30;;;;;;4962184;28;20301;-22
2021/12/06 05:21:46;;;;;;;1.60;1.50;;;22.70;43.60;;;;;;4979132;28;20187;-26
2021/12/06 05:24:15;;;;;;;1.50;1.40;;;22.30;44.00;;;;;;4979166;28;20603;-24
2021/12/06 05:26:41;;;;;;;1.50;1.30;;;22.00;44.30;;;;;;4979184;28;20362;-24
2021/12/06 05:29:10;;;;;;;2.00;1.47;;;21.70;44.70;;;;;;4979393;28;20316;-24
2021/12/06 05:31:39;;;;;;;3.17;1.70;;;21.50;45.10;;;;;;4978185;28;20212;-23
2021/12/06 05:34:12;;;;;;;1.60;1.27;;;21.20;45.60;;;;;;4978716;28;20475;-24
2021/12/06 05:36:38;;;;;;;2.33;1.80;;;21.00;45.60;;;;;;4962092;28;20211;-27
2021/12/06 05:39:06;;;;;;;2.80;1.63;;;20.70;45.90;;;;;;4979077;28;20244;-26
2021/12/06 05:41:33;;;;;;;1.93;1.73;;;20.50;46.20;;;;;;4978936;28;20446;-23
2021/12/06 05:43:59;;;;;;;1.50;1.40;;;20.10;46.60;;;;;;4979390;28;20236;-23
2021/12/06 05:46:32;;;;;;;1.87;1.40;;;20.10;47.00;;;;;;4961751;28;20288;-25
2021/12/06 05:48:58;;;;;;;2.13;1.73;;;20.70;46.60;;;;;;4979207;28;20441;-22
2021/12/06 05:51:24;;;;;;;1.60;1.47;;;21.60;45.70;;;;;;4978804;28;20210;-25
2021/12/06 05:53:49;;;;;;;1.70;1.60;;;23.00;44.30;;;;;;4961362;28;20635;-23
2021/12/06 05:56:16;;;;;;;2.57;1.60;;;24.30;42.80;;;;;;4978199;28;20212;-23
2021/12/06 05:58:41;;;;;;;2.10;1.57;;;24.80;41.80;;;;;;4976858;28;20190;-25
2021/12/06 06:01:08;;;;;;;2.00;1.50;;;24.70;41.60;;;;;;4977836;28;20584;-24
2021/12/06 06:03:34;;;;;;;1.70;1.43;;;24.80;41.70;;;;;;4978104;28;20257;-23
2021/12/06 06:06:00;;;;;;;2.13;1.50;;;25.00;41.50;;;;;;4978165;28;20606;-24
2021/12/06 06:08:26;;;;;;;1.63;1.53;;;25.20;41.30;;;;;;4977761;28;20280;-23
2021/12/06 06:10:51;;;;;;;1.93;1.57;;;25.30;41.20;;;;;;4977649;28;20206;-23
2021/12/06 06:13:19;;;;;;;2.77;1.77;;;25.10;41.00;;;;;;4977600;28;20209;-26
2021/12/06 06:15:45;;;;;;;1.57;1.40;;;25.00;41.20;;;;;;4960357;28;20206;-27
2021/12/06 06:18:11;;;;;;;2.20;1.80;;;24.90;41.30;;;;;;4977922;28;20217;-24
2021/12/06 06:20:42;;;;;;;1.70;1.60;;;24.60;41.40;;;;;;4976911;28;20206;-26
2021/12/06 06:23:08;;;;;;;2.13;1.90;;;24.40;41.70;;;;;;4981733;28;20504;-24
2021/12/06 06:25:34;;;;;;;1.93;1.73;;;24.00;41.90;;;;;;4967428;28;20301;-24
2021/12/06 06:28:02;;;;;;;1.83;1.60;;;23.80;42.30;;;;;;4983422;28;20253;-27
2021/12/06 06:30:28;;;;;;;2.07;1.70;;;23.40;42.60;;;;;;4967463;28;20202;-23
2021/12/06 06:32:54;;;;;;;1.70;1.60;;;23.30;42.90;;;;;;4966465;28;20242;-24
2021/12/06 06:35:21;;;;;;;2.53;1.80;;;22.90;43.20;;;;;;4983706;28;20597;-25
2021/12/06 06:37:46;;;;;;;2.50;1.73;;;22.60;43.60;;;;;;4982963;28;20190;-24
2021/12/06 06:40:13;;;;;;;2.40;1.90;;;22.20;44.00;;;;;;4966434;28;20204;-25
2021/12/06 06:42:39;;;;;;;3.00;1.73;;;21.90;44.40;;;;;;4983660;28;20699;-23
2021/12/06 06:45:07;;;;;;;3.17;1.73;;;21.70;44.70;;;;;;4982324;28;20233;-25
2021/12/06 06:47:32;;;;;;;2.97;1.70;;;21.40;44.90;;;;;;4967646;28;20252;-23
2021/12/06 06:49:58;;;;;;;2.03;1.73;;;21.20;45.30;;;;;;4949683;29;20241;-24
2021/12/06 06:52:25;;;;;;;3.47;1.90;;;20.90;45.60;;;;;;4982818;28;20206;-24
2021/12/06 06:54:51;;;;;;;3.53;1.80;;;20.70;45.90;;;;;;4981071;28;20203;-24
2021/12/06 06:57:16;;;;;;;1.83;1.70;;;20.90;45.90;;;;;;4965541;28;20222;-24
2021/12/06 06:59:42;;;;;;;2.67;2.13;;;21.20;45.80;;;;;;4953170;29;20223;-24
2021/12/06 07:02:08;;;;;;;5.57;1.97;;;21.60;45.50;;;;;;4964057;28;20209;-24
2021/12/06 07:04:34;;;;;;;2.80;1.80;;;22.20;45.00;;;;;;4964072;29;20275;-26
2021/12/06 07:07:00;;;;;;;3.13;1.97;;;22.70;44.40;;;;;;4964182;29;20322;-24
2021/12/06 07:09:26;;;;;;;4.27;2.20;;;23.30;43.80;;;;;;4961971;29;20207;-25
2021/12/06 07:11:52;;;;;;;2.97;2.03;;;23.60;43.30;;;;;;4940485;29;20706;-24
2021/12/06 07:14:19;;;;;;;5.03;2.23;;;24.00;43.00;;;;;;4958170;28;20251;-25
2021/12/06 07:16:47;;;;;;;4.53;2.10;;;24.30;42.60;;;;;;4964621;28;20560;-24
2021/12/06 07:19:13;;;;;;;4.60;2.60;;;24.60;42.20;;;;;;4964451;28;20203;-25
2021/12/06 07:21:38;;;;;;;5.17;2.73;;;24.80;41.90;;;;;;4955411;28;20264;-25
2021/12/06 07:24:05;;;;;;;3.10;2.27;;;24.80;41.80;;;;;;4954258;28;20214;-24
2021/12/06 07:26:31;;;;;;;5.40;2.53;;;24.70;41.70;;;;;;4962688;28;20203;-24
2021/12/06 07:28:57;;;;;;;8.13;2.77;;;24.80;41.70;;;;;;4964544;28;20351;-23
2021/12/06 07:31:24;;;;;;;3.47;2.70;;;24.60;41.70;;;;;;4967865;28;20217;-23
2021/12/06 07:33:50;;;;;;;8.53;2.30;;;24.50;41.80;;;;;;4963279;28;20206;-22
2021/12/06 07:36:18;;;;;;;6.27;2.90;;;24.40;42.00;;;;;;4980470;28;20719;-24
2021/12/06 07:38:44;;;;;;;3.70;2.40;;;24.20;42.20;;;;;;4959704;28;20199;-23
2021/12/06 07:41:14;;;;;;;5.40;2.60;;;24.00;42.30;;;;;;4978184;28;20213;-24
2021/12/06 07:43:40;;;;;;;4.00;2.57;;;23.70;42.60;;;;;;4962297;28;20214;-23
2021/12/06 07:46:09;;;;;;;5.63;2.47;;;23.40;42.90;;;;;;4980031;28;20198;-24
2021/12/06 07:48:35;;;;;;;4.67;2.53;;;23.20;43.10;;;;;;4979669;28;20278;-22
2021/12/06 07:51:01;;;;;;;4.00;2.57;;;22.90;43.40;;;;;;4979444;28;20209;-26
2021/12/06 07:53:29;;;;;;;4.20;2.70;;;22.60;43.60;;;;;;4980172;28;20210;-24
2021/12/06 07:55:57;;;;;;;6.20;2.60;;;22.50;43.90;;;;;;4979860;28;20209;-24
2021/12/06 07:58:23;;;;;;;5.80;2.73;;;22.20;44.10;;;;;;4979320;28;20201;-22
2021/12/06 08:00:50;;;;;;;4.43;2.67;;;22.10;44.20;;;;;;4979753;28;20200;-24
2021/12/06 08:03:18;;;;;;;5.47;2.83;;;22.00;44.20;;;;;;4979740;28;20203;-24
2021/12/06 08:05:47;;;;;;;3.43;2.17;;;21.90;44.30;;;;;;4979891;28;20256;-25
2021/12/06 08:08:17;;;;;;;3.80;2.50;;;21.90;44.50;;;;;;4962947;28;20229;-25
2021/12/06 08:10:46;;;;;;;2.40;2.17;;;22.10;44.30;;;;;;4962292;28;20209;-24
2021/12/06 08:13:15;;;;;;;5.30;2.60;;;22.20;44.10;;;;;;4962173;28;20301;-22
2021/12/06 08:15:41;;;;;;;4.53;2.40;;;22.50;43.90;;;;;;4979164;28;20250;-23
2021/12/06 08:18:07;;;;;;;6.53;2.70;;;22.80;43.60;;;;;;4979466;28;20293;-24
2021/12/06 08:20:34;;;;;;;4.00;2.33;;;23.10;43.30;;;;;;4978264;28;20216;-24
2021/12/06 08:23:00;;;;;;;4.70;2.63;;;23.30;42.90;;;;;;4962110;28;20245;-25
2021/12/06 08:25:26;;;;;;;6.00;2.30;;;23.70;42.60;;;;;;4978775;28;20281;-21
2021/12/06 08:27:52;;;;;;;3.87;2.50;;;24.00;42.20;;;;;;4961763;28;20304;-25
2021/12/06 08:30:22;;;;;;;4.13;2.70;;;24.30;41.80;;;;;;4961975;28;20209;-24
2021/12/06 08:32:53;;;;;;;4.20;2.10;;;24.50;41.60;;;;;;4978256;28;20202;-24
2021/12/06 08:35:19;;;;;;;3.73;2.40;;;24.40;41.50;;;;;;4978958;28;20749;-23
2021/12/06 08:37:45;;;;;;;2.40;2.20;;;24.30;41.60;;;;;;4978625;28;20262;-24
2021/12/06 08:40:12;;;;;;;3.93;2.20;;;24.00;41.80;;;;;;4977861;28;20206;-24
2021/12/06 08:42:37;;;;;;;4.07;2.50;;;23.60;42.10;;;;;;4979026;28;20277;-23
2021/12/06 08:45:05;;;;;;;3.23;2.43;;;23.20;42.40;;;;;;4978215;28;20293;-25
2021/12/06 08:47:31;;;;;;;3.10;2.57;;;22.90;42.80;;;;;;4961356;28;20603;-25
2021/12/06 08:49:57;;;;;;;4.13;2.53;;;22.60;43.20;;;;;;4978081;28;20229;-24
2021/12/06 08:52:23;;;;;;;4.17;2.30;;;22.20;43.60;;;;;;4977982;28;20439;-25
2021/12/06 08:54:49;;;;;;;3.27;2.33;;;22.10;43.80;;;;;;4960937;28;20184;-23
2021/12/06 08:57:16;;;;;;;2.97;2.23;;;22.30;43.60;;;;;;4978545;28;20209;-24
2021/12/06 08:59:42;;;;;;;2.70;2.30;;;22.80;43.30;;;;;;4978027;28;20195;-24
2021/12/06 09:02:08;;;;;;;3.53;2.50;;;23.20;42.90;;;;;;4978683;28;20194;-23
2021/12/06 09:04:38;;;;;;;3.87;2.27;;;23.60;42.50;;;;;;4961366;28;20252;-26
2021/12/06 09:07:11;;;;;;;2.97;2.20;;;24.10;42.00;;;;;;4978029;28;20214;-23
2021/12/06 09:09:40;;;;;;;3.47;2.70;;;24.60;41.50;;;;;;4978201;28;20313;-23
2021/12/06 09:12:06;;;;;;;3.10;2.27;;;25.10;41.00;;;;;;4960994;28;20207;-25
2021/12/06 09:14:32;;;;;;;2.50;2.30;;;25.40;40.70;;;;;;4978984;28;20271;-23
2021/12/06 09:16:58;;;;;;;2.87;2.23;;;25.40;40.60;;;;;;4977751;28;20211;-24
2021/12/06 09:19:23;;;;;;;2.77;2.03;;;25.40;40.60;;;;;;4977766;28;20225;-23
2021/12/06 09:21:49;;;;;;;3.33;2.50;;;25.30;40.70;;;;;;4978218;28;20514;-25
2021/12/06 09:24:17;;;;;;;3.27;2.47;;;25.40;40.60;;;;;;4977703;28;20210;-23
2021/12/06 09:26:46;;;;;;;3.73;2.30;;;25.40;40.70;;;;;;4977723;28;20239;-25
2021/12/06 09:29:12;;;;;;;4.40;2.50;;;25.30;40.80;;;;;;4977657;28;20316;-27
2021/12/06 09:31:39;;;;;;;4.07;2.27;;;25.00;41.40;;;;;;4977809;28;20221;-25
2021/12/06 09:34:05;;;;;;;5.20;2.97;;;24.70;41.20;;;;;;4977505;28;20200;-24
2021/12/06 09:36:33;;;;;;;3.07;2.40;;;24.50;41.40;;;;;;4960868;28;20450;-23
2021/12/06 09:38:59;;;;;;;3.60;2.40;;;24.10;41.70;;;;;;4960871;28;20762;-23
2021/12/06 09:41:27;;;;;;;4.90;2.90;;;23.90;42.00;;;;;;4976701;28;20551;-27
2021/12/06 09:43:57;;;;;;;3.20;2.37;;;23.60;42.30;;;;;;4977552;28;20462;-24
2021/12/06 09:46:25;;;;;;;6.23;2.30;;;23.30;42.60;;;;;;4977594;28;20273;-23
2021/12/06 09:48:50;;;;;;;4.67;2.63;;;23.00;42.90;;;;;;4960709;28;20301;-24
2021/12/06 09:51:21;;;;;;;4.60;2.70;;;22.70;43.20;;;;;;4977703;28;20195;-25
2021/12/06 09:53:49;;;;;;;7.13;2.80;;;22.50;43.60;;;;;;4977296;28;20205;-23
2021/12/06 09:56:20;;;;;;;6.53;2.97;;;22.20;43.80;;;;;;4976524;28;20241;-22
2021/12/06 09:58:46;;;;;;;4.33;3.10;;;22.00;44.10;;;;;;4960066;28;20260;-25
2021/12/06 10:01:16;;;;;;;3.47;2.50;;;21.70;44.30;;;;;;4976440;28;20588;-25
2021/12/06 10:03:46;;;;;;;4.33;2.47;;;21.60;44.50;;;;;;4977470;28;20194;-23
2021/12/06 10:06:14;;;;;;;3.80;3.03;;;21.40;44.60;;;;;;4960212;28;20199;-23
2021/12/06 10:08:44;;;;;;;4.23;2.93;;;21.50;44.70;;;;;;4976635;28;20218;-25
2021/12/06 10:11:11;;;;;;;4.83;3.07;;;21.50;44.60;;;;;;4959796;28;20202;-22
2021/12/06 10:13:39;;;;;;;3.43;2.70;;;21.80;44.40;;;;;;4960255;28;21291;-25
2021/12/06 10:16:06;;;;;;;4.30;3.13;;;22.20;44.00;;;;;;4976795;28;20188;-23
2021/12/06 10:18:33;;;;;;;3.80;3.00;;;22.70;43.50;;;;;;4976700;28;20310;-23
2021/12/06 10:21:00;;;;;;;3.10;2.80;;;23.00;43.10;;;;;;4976491;28;20210;-24
2021/12/06 10:23:28;;;;;;;6.67;3.37;;;23.40;42.70;;;;;;4976919;28;20306;-25
2021/12/06 10:25:55;;;;;;;3.53;2.80;;;23.70;42.30;;;;;;4960084;28;20191;-22
2021/12/06 10:28:24;;;;;;;5.20;3.20;;;24.20;41.80;;;;;;4976288;28;20262;-26
2021/12/06 10:30:54;;;;;;;4.90;3.60;;;24.40;41.40;;;;;;4959307;28;20226;-25
2021/12/06 10:33:24;;;;;;;3.73;3.23;;;24.60;41.20;;;;;;4976843;28;20212;-25
2021/12/06 10:35:54;;;;;;;4.30;3.20;;;24.80;41.10;;;;;;4976693;28;20186;-23
2021/12/06 10:38:23;;;;;;;4.40;3.30;;;24.80;40.90;;;;;;4975838;28;20640;-24
2021/12/06 10:40:49;;;;;;;6.00;3.43;;;24.90;40.80;;;;;;4958723;28;20195;-25
2021/12/06 10:43:15;;;;;;;4.93;3.37;;;24.80;40.80;;;;;;4960119;28;20201;-25
2021/12/06 10:45:51;;;;;;;4.10;3.10;;;24.60;40.90;;;;;;4975003;28;20186;-25
2021/12/06 10:48:31;;;;;;;4.43;3.30;;;24.40;41.20;;;;;;4976422;28;20475;-22
2021/12/06 10:51:09;;;;;;;5.87;3.50;;;24.10;41.40;;;;;;4975578;28;20193;-25
2021/12/06 10:53:47;;;;;;;4.77;3.57;;;23.80;41.70;;;;;;4959871;28;20237;-23
2021/12/06 10:56:20;;;;;;;4.90;3.80;;;23.50;41.90;;;;;;4959582;28;20477;-22
2021/12/06 10:58:48;;;;;;;5.53;3.80;;;23.20;42.20;;;;;;4960118;28;20203;-24
2021/12/06 11:01:19;;;;;;;5.87;3.97;;;22.90;42.50;;;;;;4959319;28;20195;-25
2021/12/06 11:03:51;;;;;;;4.17;3.60;;;22.70;42.70;;;;;;4959582;28;20211;-24
2021/12/06 11:06:27;;;;;;;5.27;3.93;;;22.50;43.00;;;;;;4976010;28;20225;-23
2021/12/06 11:08:56;;;;;;;4.67;3.73;;;22.30;43.10;;;;;;4977842;28;20222;-24
2021/12/06 11:11:35;;;;;;;5.80;3.90;;;22.20;43.20;;;;;;4980222;28;20190;-26
2021/12/06 11:14:08;;;;;;;5.30;3.97;;;22.10;43.40;;;;;;4979970;28;20195;-24
2021/12/06 11:16:40;;;;;;;4.90;3.80;;;22.00;43.50;;;;;;4980301;28;20189;-25
2021/12/06 11:19:10;;;;;;;4.87;3.83;;;21.90;43.60;;;;;;4963818;28;20198;-24
2021/12/06 11:21:48;;;;;;;4.70;3.57;;;21.90;43.60;;;;;;4979564;28;20195;-26
2021/12/06 11:24:23;;;;;;;5.10;3.80;;;22.00;43.60;;;;;;4979804;28;20225;-23
2021/12/06 11:26:59;;;;;;;4.70;3.83;;;22.10;43.50;;;;;;4980018;28;20224;-23
2021/12/06 11:29:55;;;;;;;5.07;3.70;;;22.20;43.30;;;;;;4963190;28;20206;-25
2021/12/06 11:32:31;;;;;;;4.53;3.63;;;22.50;43.20;;;;;;4979087;28;20643;-25
2021/12/06 11:35:03;;;;;;;4.23;3.53;;;23.00;42.60;;;;;;4975308;28;20292;-25
2021/12/06 11:37:48;;;;;;;5.03;3.73;;;23.50;42.20;;;;;;4978870;28;20253;-26
2021/12/06 11:40:21;;;;;;;4.83;3.77;;;23.70;41.80;;;;;;4979088;28;20226;-24
2021/12/06 11:43:06;;;;;;;4.57;3.97;;;23.90;41.60;;;;;;4979262;28;20226;-24
2021/12/06 11:45:49;;;;;;;4.37;3.80;;;24.00;41.40;;;;;;4962612;28;20447;-25
2021/12/06 11:48:19;;;;;;;4.10;3.60;;;24.40;41.20;;;;;;4978751;28;20203;-25
2021/12/06 11:50:48;;;;;;;5.20;3.93;;;24.50;40.90;;;;;;4961970;28;20465;-25
2021/12/06 11:53:17;;;;;;;4.20;3.70;;;24.50;40.90;;;;;;4961719;28;20208;-24
2021/12/06 11:56:11;;;;;;;4.03;3.63;;;24.40;40.90;;;;;;4961878;28;20238;-23
2021/12/06 11:58:51;;;;;;;4.17;3.63;;;24.40;40.90;;;;;;4973707;28;20210;-23
2021/12/06 12:01:22;;;;;;;5.07;3.83;;;24.30;41.00;;;;;;4979073;28;20182;-28
2021/12/06 12:03:51;;;;;;;4.00;3.60;;;24.10;41.00;;;;;;4961555;28;20273;-21
2021/12/06 12:06:22;;;;;;;4.37;3.73;;;23.90;41.20;;;;;;4977065;28;20195;-25
2021/12/06 12:08:47;;;;;;;4.60;3.53;;;23.70;41.50;;;;;;4978481;28;20543;-24
2021/12/06 12:11:13;;;;;;;4.80;3.77;;;23.40;41.80;;;;;;4961650;28;20199;-26
2021/12/06 12:13:39;;;;;;;5.90;3.70;;;23.00;42.10;;;;;;4960969;28;20478;-27
2021/12/06 12:16:06;;;;;;;4.47;3.70;;;22.80;42.40;;;;;;4978169;28;20265;-25
2021/12/06 12:18:35;;;;;;;5.50;3.90;;;22.50;42.70;;;;;;4978402;28;20241;-23
2021/12/06 12:21:01;;;;;;;5.23;4.10;;;22.20;43.00;;;;;;4977996;28;20571;-24
2021/12/06 12:23:32;;;;;;;5.00;4.00;;;21.90;43.30;;;;;;4978331;28;20667;-24
2021/12/06 12:26:07;;;;;;;4.13;3.60;;;21.60;43.60;;;;;;4977999;28;20231;-25
2021/12/06 12:28:40;;;;;;;4.93;3.87;;;21.40;43.90;;;;;;4978543;28;20278;-24
2021/12/06 12:31:11;;;;;;;4.10;3.70;;;21.20;44.20;;;;;;4977887;28;20677;-24
2021/12/06 12:33:38;;;;;;;4.80;3.97;;;21.40;44.10;;;;;;4978608;28;20688;-25
2021/12/06 12:36:07;;;;;;;4.43;3.73;;;21.60;43.90;;;;;;4978394;28;20209;-24
2021/12/06 12:38:34;;;;;;;5.03;3.57;;;22.00;43.60;;;;;;4978598;28;20320;-22
2021/12/06 12:41:08;;;;;;;6.43;3.97;;;22.70;43.00;;;;;;4977400;28;20198;-22
2021/12/06 12:43:50;;;;;;;7.03;3.93;;;23.40;42.50;;;;;;4977617;28;20265;-26
2021/12/06 12:46:30;;;;;;;6.47;4.43;;;24.40;41.90;;;;;;4978193;28;20220;-25
2021/12/06 12:48:59;;;;;;;5.03;3.70;;;24.80;41.10;;;;;;4977658;28;20244;-27
2021/12/06 12:51:31;;;;;;;5.83;4.13;;;25.10;40.70;;;;;;4978342;28;20418;-26
2021/12/06 12:54:11;;;;;;;5.20;4.10;;;25.40;40.50;;;;;;4960714;28;20203;-26
2021/12/06 12:56:57;;;;;;;9.13;4.00;;;25.40;40.20;;;;;;4978295;28;20191;-25
2021/12/06 12:59:44;;;;;;;5.47;4.40;;;25.40;40.30;;;;;;4978013;28;20188;-26
2021/12/06 13:02:33;;;;;;;6.13;4.23;;;25.20;40.20;;;;;;4977325;28;20210;-23
2021/12/06 13:04:59;;;;;;;5.77;4.20;;;25.00;40.70;;;;;;4977378;28;20638;-25
2021/12/06 13:07:37;;;;;;;7.57;4.43;;;24.80;40.80;;;;;;4977534;28;20792;-25
2021/12/06 13:10:54;;;;;;;4.67;3.97;;;24.60;41.00;;;;;;4977835;28;20222;-24